sensor_id;sensor_type;location;lat;lon;timestamp;P1;durP1;ratioP1;P2;durP2;ratioP2
20036;SDS011;10179;42.640;23.312;2023-08-06T00:01:14;4.05;;;2.20;;
20036;SDS011;10179;42.640;23.312;2023-08-06T00:03:39;4.43;;;2.78;;
20036;SDS011;10179;42.640;23.312;2023-08-06T00:06:05;5.28;;;3.05;;
20036;SDS011;10179;42.640;23.312;2023-08-06T00:08:31;8.00;;;2.90;;
20036;SDS011;10179;42.640;23.312;2023-08-06T00:10:57;5.70;;;3.10;;
20036;SDS011;10179;42.640;23.312;2023-08-06T00:13:22;9.50;;;3.30;;
20036;SDS011;10179;42.640;23.312;2023-08-06T00:15:47;6.43;;;3.42;;
20036;SDS011;10179;42.640;23.312;2023-08-06T00:18:13;8.27;;;3.38;;
20036;SDS011;10179;42.640;23.312;2023-08-06T00:20:39;5.32;;;2.80;;
20036;SDS011;10179;42.640;23.312;2023-08-06T00:23:05;5.00;;;2.85;;
20036;SDS011;10179;42.640;23.312;2023-08-06T00:25:31;5.53;;;2.90;;
20036;SDS011;10179;42.640;23.312;2023-08-06T00:27:56;7.72;;;3.63;;
20036;SDS011;10179;42.640;23.312;2023-08-06T00:30:22;4.85;;;2.50;;
20036;SDS011;10179;42.640;23.312;2023-08-06T00:32:47;4.10;;;2.70;;
20036;SDS011;10179;42.640;23.312;2023-08-06T00:35:12;6.22;;;2.67;;
20036;SDS011;10179;42.640;23.312;2023-08-06T00:37:38;3.83;;;2.58;;
20036;SDS011;10179;42.640;23.312;2023-08-06T00:40:05;4.05;;;2.33;;
20036;SDS011;10179;42.640;23.312;2023-08-06T00:42:31;3.50;;;2.22;;
20036;SDS011;10179;42.640;23.312;2023-08-06T00:44:57;2.67;;;1.95;;
20036;SDS011;10179;42.640;23.312;2023-08-06T00:47:22;3.08;;;2.00;;
20036;SDS011;10179;42.640;23.312;2023-08-06T00:49:48;2.65;;;2.30;;
20036;SDS011;10179;42.640;23.312;2023-08-06T00:52:14;5.75;;;3.83;;
20036;SDS011;10179;42.640;23.312;2023-08-06T00:54:39;10.32;;;6.93;;
20036;SDS011;10179;42.640;23.312;2023-08-06T00:57:05;6.78;;;4.82;;
20036;SDS011;10179;42.640;23.312;2023-08-06T00:59:33;2.53;;;2.08;;
20036;SDS011;10179;42.640;23.312;2023-08-06T01:01:59;4.55;;;2.45;;
20036;SDS011;10179;42.640;23.312;2023-08-06T01:04:24;5.20;;;2.90;;
20036;SDS011;10179;42.640;23.312;2023-08-06T01:07:01;5.05;;;3.03;;
20036;SDS011;10179;42.640;23.312;2023-08-06T01:12:34;7.80;;;4.22;;
20036;SDS011;10179;42.640;23.312;2023-08-06T01:15:08;3.85;;;2.80;;
20036;SDS011;10179;42.640;23.312;2023-08-06T01:17:40;6.45;;;2.97;;
20036;SDS011;10179;42.640;23.312;2023-08-06T01:20:06;6.05;;;3.58;;
20036;SDS011;10179;42.640;23.312;2023-08-06T01:22:31;8.75;;;5.18;;
20036;SDS011;10179;42.640;23.312;2023-08-06T01:24:57;6.80;;;4.47;;
20036;SDS011;10179;42.640;23.312;2023-08-06T01:30:06;6.38;;;4.13;;
20036;SDS011;10179;42.640;23.312;2023-08-06T01:32:38;6.50;;;4.28;;
20036;SDS011;10179;42.640;23.312;2023-08-06T01:35:08;6.03;;;4.10;;
20036;SDS011;10179;42.640;23.312;2023-08-06T01:37:36;7.32;;;3.97;;
20036;SDS011;10179;42.640;23.312;2023-08-06T01:40:10;5.45;;;3.53;;
20036;SDS011;10179;42.640;23.312;2023-08-06T01:42:38;6.53;;;4.00;;
20036;SDS011;10179;42.640;23.312;2023-08-06T01:45:05;6.20;;;3.80;;
20036;SDS011;10179;42.640;23.312;2023-08-06T01:47:31;7.82;;;3.42;;
20036;SDS011;10179;42.640;23.312;2023-08-06T01:49:57;8.27;;;3.30;;
20036;SDS011;10179;42.640;23.312;2023-08-06T01:52:22;6.03;;;3.97;;
20036;SDS011;10179;42.640;23.312;2023-08-06T01:54:47;7.93;;;4.05;;
20036;SDS011;10179;42.640;23.312;2023-08-06T01:57:13;4.63;;;3.30;;
20036;SDS011;10179;42.640;23.312;2023-08-06T01:59:38;5.78;;;3.13;;
20036;SDS011;10179;42.640;23.312;2023-08-06T02:02:04;5.65;;;3.13;;
20036;SDS011;10179;42.640;23.312;2023-08-06T02:04:29;7.20;;;3.58;;
20036;SDS011;10179;42.640;23.312;2023-08-06T02:06:54;8.75;;;3.40;;
20036;SDS011;10179;42.640;23.312;2023-08-06T02:09:20;4.78;;;3.42;;
20036;SDS011;10179;42.640;23.312;2023-08-06T02:11:45;8.13;;;3.50;;
20036;SDS011;10179;42.640;23.312;2023-08-06T02:14:10;4.85;;;3.03;;
20036;SDS011;10179;42.640;23.312;2023-08-06T02:16:37;5.28;;;3.30;;
20036;SDS011;10179;42.640;23.312;2023-08-06T02:19:02;7.78;;;3.30;;
20036;SDS011;10179;42.640;23.312;2023-08-06T02:21:27;5.65;;;3.05;;
20036;SDS011;10179;42.640;23.312;2023-08-06T02:23:53;4.43;;;2.80;;
20036;SDS011;10179;42.640;23.312;2023-08-06T02:26:18;6.20;;;3.38;;
20036;SDS011;10179;42.640;23.312;2023-08-06T02:28:44;8.70;;;3.63;;
20036;SDS011;10179;42.640;23.312;2023-08-06T02:31:09;6.22;;;3.42;;
20036;SDS011;10179;42.640;23.312;2023-08-06T02:33:34;12.30;;;4.05;;
20036;SDS011;10179;42.640;23.312;2023-08-06T02:36:00;5.40;;;2.83;;
20036;SDS011;10179;42.640;23.312;2023-08-06T02:38:26;8.80;;;3.30;;
20036;SDS011;10179;42.640;23.312;2023-08-06T02:40:52;9.07;;;3.70;;
20036;SDS011;10179;42.640;23.312;2023-08-06T02:43:17;6.95;;;3.17;;
20036;SDS011;10179;42.640;23.312;2023-08-06T02:45:43;5.35;;;2.90;;
20036;SDS011;10179;42.640;23.312;2023-08-06T02:48:08;4.57;;;2.80;;
20036;SDS011;10179;42.640;23.312;2023-08-06T02:50:39;4.45;;;2.78;;
20036;SDS011;10179;42.640;23.312;2023-08-06T02:53:06;5.80;;;2.73;;
20036;SDS011;10179;42.640;23.312;2023-08-06T02:55:34;4.72;;;2.70;;
20036;SDS011;10179;42.640;23.312;2023-08-06T02:58:00;4.70;;;2.97;;
20036;SDS011;10179;42.640;23.312;2023-08-06T03:00:26;4.40;;;2.53;;
20036;SDS011;10179;42.640;23.312;2023-08-06T03:02:52;4.65;;;2.72;;
20036;SDS011;10179;42.640;23.312;2023-08-06T03:05:18;5.53;;;2.75;;
20036;SDS011;10179;42.640;23.312;2023-08-06T03:07:43;4.50;;;2.97;;
20036;SDS011;10179;42.640;23.312;2023-08-06T03:10:08;6.32;;;2.80;;
20036;SDS011;10179;42.640;23.312;2023-08-06T03:12:34;6.72;;;2.80;;
20036;SDS011;10179;42.640;23.312;2023-08-06T03:14:59;3.72;;;2.58;;
20036;SDS011;10179;42.640;23.312;2023-08-06T03:17:25;3.45;;;2.53;;
20036;SDS011;10179;42.640;23.312;2023-08-06T03:19:50;5.25;;;2.70;;
20036;SDS011;10179;42.640;23.312;2023-08-06T03:22:16;3.03;;;2.40;;
20036;SDS011;10179;42.640;23.312;2023-08-06T03:24:41;4.63;;;2.78;;
20036;SDS011;10179;42.640;23.312;2023-08-06T03:27:06;5.53;;;2.55;;
20036;SDS011;10179;42.640;23.312;2023-08-06T03:29:32;3.78;;;2.78;;
20036;SDS011;10179;42.640;23.312;2023-08-06T03:31:57;4.25;;;2.60;;
20036;SDS011;10179;42.640;23.312;2023-08-06T03:34:22;7.03;;;3.00;;
20036;SDS011;10179;42.640;23.312;2023-08-06T03:36:48;4.30;;;2.58;;
20036;SDS011;10179;42.640;23.312;2023-08-06T03:39:13;6.60;;;3.15;;
20036;SDS011;10179;42.640;23.312;2023-08-06T03:41:39;6.05;;;2.58;;
20036;SDS011;10179;42.640;23.312;2023-08-06T03:44:05;4.68;;;2.83;;
20036;SDS011;10179;42.640;23.312;2023-08-06T03:46:30;3.92;;;2.58;;
20036;SDS011;10179;42.640;23.312;2023-08-06T03:48:59;3.88;;;2.60;;
20036;SDS011;10179;42.640;23.312;2023-08-06T03:51:25;6.82;;;2.97;;
20036;SDS011;10179;42.640;23.312;2023-08-06T03:53:51;5.47;;;2.72;;
20036;SDS011;10179;42.640;23.312;2023-08-06T03:56:16;4.55;;;2.53;;
20036;SDS011;10179;42.640;23.312;2023-08-06T03:58:41;4.65;;;3.13;;
20036;SDS011;10179;42.640;23.312;2023-08-06T04:01:07;5.05;;;2.42;;
20036;SDS011;10179;42.640;23.312;2023-08-06T04:03:32;4.55;;;2.80;;
20036;SDS011;10179;42.640;23.312;2023-08-06T04:05:58;5.15;;;2.90;;
20036;SDS011;10179;42.640;23.312;2023-08-06T04:08:23;4.38;;;2.50;;
20036;SDS011;10179;42.640;23.312;2023-08-06T04:10:49;4.13;;;2.83;;
20036;SDS011;10179;42.640;23.312;2023-08-06T04:13:16;4.63;;;2.63;;
20036;SDS011;10179;42.640;23.312;2023-08-06T04:15:41;6.40;;;2.80;;
20036;SDS011;10179;42.640;23.312;2023-08-06T04:18:07;4.85;;;3.25;;
20036;SDS011;10179;42.640;23.312;2023-08-06T04:20:32;6.45;;;2.78;;
20036;SDS011;10179;42.640;23.312;2023-08-06T04:22:57;5.57;;;3.58;;
20036;SDS011;10179;42.640;23.312;2023-08-06T04:25:23;5.03;;;3.10;;
20036;SDS011;10179;42.640;23.312;2023-08-06T04:27:48;6.30;;;3.45;;
20036;SDS011;10179;42.640;23.312;2023-08-06T04:30:13;7.72;;;3.72;;
20036;SDS011;10179;42.640;23.312;2023-08-06T04:32:39;8.93;;;4.03;;
20036;SDS011;10179;42.640;23.312;2023-08-06T04:35:05;7.00;;;3.50;;
20036;SDS011;10179;42.640;23.312;2023-08-06T04:37:30;4.90;;;3.13;;
20036;SDS011;10179;42.640;23.312;2023-08-06T04:39:56;6.65;;;3.67;;
20036;SDS011;10179;42.640;23.312;2023-08-06T04:42:21;5.85;;;3.15;;
20036;SDS011;10179;42.640;23.312;2023-08-06T04:44:47;6.38;;;3.45;;
20036;SDS011;10179;42.640;23.312;2023-08-06T04:47:12;7.10;;;3.50;;
20036;SDS011;10179;42.640;23.312;2023-08-06T04:49:37;7.45;;;4.57;;
20036;SDS011;10179;42.640;23.312;2023-08-06T04:52:03;9.73;;;5.82;;
20036;SDS011;10179;42.640;23.312;2023-08-06T04:54:29;7.75;;;4.35;;
20036;SDS011;10179;42.640;23.312;2023-08-06T04:56:54;6.72;;;4.20;;
20036;SDS011;10179;42.640;23.312;2023-08-06T04:59:19;6.25;;;4.32;;
20036;SDS011;10179;42.640;23.312;2023-08-06T05:01:45;8.07;;;4.90;;
20036;SDS011;10179;42.640;23.312;2023-08-06T05:04:10;5.10;;;4.03;;
20036;SDS011;10179;42.640;23.312;2023-08-06T05:06:37;8.45;;;3.63;;
20036;SDS011;10179;42.640;23.312;2023-08-06T05:09:06;7.30;;;4.03;;
20036;SDS011;10179;42.640;23.312;2023-08-06T05:11:31;8.35;;;4.75;;
20036;SDS011;10179;42.640;23.312;2023-08-06T05:13:57;7.43;;;5.10;;
20036;SDS011;10179;42.640;23.312;2023-08-06T05:16:22;6.43;;;4.80;;
20036;SDS011;10179;42.640;23.312;2023-08-06T05:18:48;7.20;;;4.85;;
20036;SDS011;10179;42.640;23.312;2023-08-06T05:21:13;7.72;;;4.38;;
20036;SDS011;10179;42.640;23.312;2023-08-06T05:23:39;5.97;;;4.68;;
20036;SDS011;10179;42.640;23.312;2023-08-06T05:26:04;8.30;;;4.88;;
20036;SDS011;10179;42.640;23.312;2023-08-06T05:28:30;6.38;;;4.13;;
20036;SDS011;10179;42.640;23.312;2023-08-06T05:30:55;7.15;;;4.47;;
20036;SDS011;10179;42.640;23.312;2023-08-06T05:33:20;7.88;;;4.28;;
20036;SDS011;10179;42.640;23.312;2023-08-06T05:35:46;6.25;;;4.30;;
20036;SDS011;10179;42.640;23.312;2023-08-06T05:38:11;6.38;;;4.28;;
20036;SDS011;10179;42.640;23.312;2023-08-06T05:40:37;8.80;;;4.80;;
20036;SDS011;10179;42.640;23.312;2023-08-06T05:43:02;7.50;;;4.72;;
20036;SDS011;10179;42.640;23.312;2023-08-06T05:45:27;8.80;;;4.03;;
20036;SDS011;10179;42.640;23.312;2023-08-06T05:47:53;5.82;;;4.32;;
20036;SDS011;10179;42.640;23.312;2023-08-06T05:50:20;5.70;;;3.97;;
20036;SDS011;10179;42.640;23.312;2023-08-06T05:52:45;9.38;;;4.38;;
20036;SDS011;10179;42.640;23.312;2023-08-06T05:55:11;5.60;;;4.38;;
20036;SDS011;10179;42.640;23.312;2023-08-06T05:57:36;9.68;;;5.18;;
20036;SDS011;10179;42.640;23.312;2023-08-06T06:00:02;7.97;;;5.50;;
20036;SDS011;10179;42.640;23.312;2023-08-06T06:02:28;8.57;;;5.97;;
20036;SDS011;10179;42.640;23.312;2023-08-06T06:04:53;14.85;;;7.00;;
20036;SDS011;10179;42.640;23.312;2023-08-06T06:07:18;10.30;;;6.30;;
20036;SDS011;10179;42.640;23.312;2023-08-06T06:09:44;11.07;;;6.82;;
20036;SDS011;10179;42.640;23.312;2023-08-06T06:12:09;11.18;;;6.72;;
20036;SDS011;10179;42.640;23.312;2023-08-06T06:14:35;11.85;;;6.43;;
20036;SDS011;10179;42.640;23.312;2023-08-06T06:17:00;14.18;;;7.38;;
20036;SDS011;10179;42.640;23.312;2023-08-06T06:19:26;13.10;;;7.43;;
20036;SDS011;10179;42.640;23.312;2023-08-06T06:21:51;10.80;;;7.63;;
20036;SDS011;10179;42.640;23.312;2023-08-06T06:24:18;12.20;;;7.97;;
20036;SDS011;10179;42.640;23.312;2023-08-06T06:26:43;12.65;;;7.75;;
20036;SDS011;10179;42.640;23.312;2023-08-06T06:29:09;10.50;;;7.30;;
20036;SDS011;10179;42.640;23.312;2023-08-06T06:31:34;7.90;;;5.78;;
20036;SDS011;10179;42.640;23.312;2023-08-06T06:34:00;6.70;;;4.70;;
20036;SDS011;10179;42.640;23.312;2023-08-06T06:36:25;9.85;;;6.32;;
20036;SDS011;10179;42.640;23.312;2023-08-06T06:38:51;10.80;;;6.07;;
20036;SDS011;10179;42.640;23.312;2023-08-06T06:41:16;8.13;;;5.78;;
20036;SDS011;10179;42.640;23.312;2023-08-06T06:43:41;13.27;;;7.05;;
20036;SDS011;10179;42.640;23.312;2023-08-06T06:46:07;10.82;;;6.53;;
20036;SDS011;10179;42.640;23.312;2023-08-06T06:48:32;9.88;;;6.72;;
20036;SDS011;10179;42.640;23.312;2023-08-06T06:50:58;8.40;;;6.38;;
20036;SDS011;10179;42.640;23.312;2023-08-06T06:53:24;11.52;;;5.47;;
20036;SDS011;10179;42.640;23.312;2023-08-06T06:56:01;8.13;;;5.18;;
20036;SDS011;10179;42.640;23.312;2023-08-06T06:58:27;6.93;;;4.40;;
20036;SDS011;10179;42.640;23.312;2023-08-06T07:00:53;6.65;;;5.40;;
20036;SDS011;10179;42.640;23.312;2023-08-06T07:03:19;7.80;;;4.95;;
20036;SDS011;10179;42.640;23.312;2023-08-06T07:05:45;7.28;;;5.35;;
20036;SDS011;10179;42.640;23.312;2023-08-06T07:08:11;7.93;;;5.03;;
20036;SDS011;10179;42.640;23.312;2023-08-06T07:10:36;6.13;;;4.50;;
20036;SDS011;10179;42.640;23.312;2023-08-06T07:13:02;7.63;;;4.15;;
20036;SDS011;10179;42.640;23.312;2023-08-06T07:15:27;5.25;;;3.70;;
20036;SDS011;10179;42.640;23.312;2023-08-06T07:17:52;10.30;;;3.70;;
20036;SDS011;10179;42.640;23.312;2023-08-06T07:20:18;4.05;;;3.08;;
20036;SDS011;10179;42.640;23.312;2023-08-06T07:22:43;4.05;;;3.03;;
20036;SDS011;10179;42.640;23.312;2023-08-06T07:25:09;3.50;;;2.33;;
20036;SDS011;10179;42.640;23.312;2023-08-06T07:27:35;2.63;;;1.88;;
20036;SDS011;10179;42.640;23.312;2023-08-06T07:30:00;5.10;;;2.40;;
20036;SDS011;10179;42.640;23.312;2023-08-06T07:32:26;4.60;;;1.75;;
20036;SDS011;10179;42.640;23.312;2023-08-06T07:34:52;2.08;;;1.60;;
20036;SDS011;10179;42.640;23.312;2023-08-06T07:37:22;1.63;;;1.33;;
20036;SDS011;10179;42.640;23.312;2023-08-06T07:39:47;3.88;;;1.90;;
20036;SDS011;10179;42.640;23.312;2023-08-06T07:42:13;3.03;;;1.75;;
20036;SDS011;10179;42.640;23.312;2023-08-06T07:44:39;3.00;;;1.70;;
20036;SDS011;10179;42.640;23.312;2023-08-06T07:47:04;3.13;;;2.20;;
20036;SDS011;10179;42.640;23.312;2023-08-06T07:49:30;2.47;;;1.80;;
20036;SDS011;10179;42.640;23.312;2023-08-06T07:51:55;3.83;;;2.05;;
20036;SDS011;10179;42.640;23.312;2023-08-06T07:54:21;4.10;;;2.10;;
20036;SDS011;10179;42.640;23.312;2023-08-06T07:56:47;1.70;;;1.42;;
20036;SDS011;10179;42.640;23.312;2023-08-06T07:59:12;2.80;;;1.85;;
20036;SDS011;10179;42.640;23.312;2023-08-06T08:01:38;3.58;;;2.20;;
20036;SDS011;10179;42.640;23.312;2023-08-06T08:04:03;6.03;;;2.15;;
20036;SDS011;10179;42.640;23.312;2023-08-06T08:06:29;8.15;;;2.17;;
20036;SDS011;10179;42.640;23.312;2023-08-06T08:08:55;2.03;;;1.83;;
20036;SDS011;10179;42.640;23.312;2023-08-06T08:11:20;4.57;;;2.05;;
20036;SDS011;10179;42.640;23.312;2023-08-06T08:13:45;2.05;;;1.80;;
20036;SDS011;10179;42.640;23.312;2023-08-06T08:16:11;4.72;;;2.20;;
20036;SDS011;10179;42.640;23.312;2023-08-06T08:18:36;3.28;;;2.03;;
20036;SDS011;10179;42.640;23.312;2023-08-06T08:21:02;2.60;;;2.15;;
20036;SDS011;10179;42.640;23.312;2023-08-06T08:23:27;4.70;;;3.13;;
20036;SDS011;10179;42.640;23.312;2023-08-06T08:25:53;3.72;;;3.20;;
20036;SDS011;10179;42.640;23.312;2023-08-06T08:28:18;3.92;;;2.63;;
20036;SDS011;10179;42.640;23.312;2023-08-06T08:30:44;3.10;;;2.80;;
20036;SDS011;10179;42.640;23.312;2023-08-06T08:33:09;3.58;;;2.70;;
20036;SDS011;10179;42.640;23.312;2023-08-06T08:35:35;3.22;;;2.30;;
20036;SDS011;10179;42.640;23.312;2023-08-06T08:38:01;4.20;;;2.80;;
20036;SDS011;10179;42.640;23.312;2023-08-06T08:40:29;3.30;;;2.42;;
20036;SDS011;10179;42.640;23.312;2023-08-06T08:42:57;4.95;;;2.63;;
20036;SDS011;10179;42.640;23.312;2023-08-06T08:45:28;4.63;;;2.40;;
20036;SDS011;10179;42.640;23.312;2023-08-06T08:47:54;7.03;;;2.78;;
20036;SDS011;10179;42.640;23.312;2023-08-06T08:50:20;4.07;;;2.67;;
20036;SDS011;10179;42.640;23.312;2023-08-06T08:52:46;3.53;;;2.30;;
20036;SDS011;10179;42.640;23.312;2023-08-06T08:55:14;2.90;;;2.10;;
20036;SDS011;10179;42.640;23.312;2023-08-06T08:57:40;2.88;;;2.00;;
20036;SDS011;10179;42.640;23.312;2023-08-06T09:00:06;2.63;;;2.17;;
20036;SDS011;10179;42.640;23.312;2023-08-06T09:02:32;4.32;;;2.25;;
20036;SDS011;10179;42.640;23.312;2023-08-06T09:04:59;2.95;;;2.20;;
20036;SDS011;10179;42.640;23.312;2023-08-06T09:07:27;3.35;;;2.33;;
20036;SDS011;10179;42.640;23.312;2023-08-06T09:09:56;4.78;;;2.00;;
20036;SDS011;10179;42.640;23.312;2023-08-06T09:12:24;4.28;;;2.38;;
20036;SDS011;10179;42.640;23.312;2023-08-06T09:14:51;3.03;;;2.05;;
20036;SDS011;10179;42.640;23.312;2023-08-06T09:17:17;6.57;;;1.80;;
20036;SDS011;10179;42.640;23.312;2023-08-06T09:19:44;2.95;;;2.35;;
20036;SDS011;10179;42.640;23.312;2023-08-06T09:22:13;3.05;;;2.20;;
20036;SDS011;10179;42.640;23.312;2023-08-06T09:24:41;5.45;;;2.22;;
20036;SDS011;10179;42.640;23.312;2023-08-06T09:27:11;2.83;;;2.13;;
20036;SDS011;10179;42.640;23.312;2023-08-06T09:29:45;2.78;;;2.00;;
20036;SDS011;10179;42.640;23.312;2023-08-06T09:32:11;2.42;;;2.13;;
20036;SDS011;10179;42.640;23.312;2023-08-06T09:34:41;3.58;;;2.00;;
20036;SDS011;10179;42.640;23.312;2023-08-06T09:37:10;2.67;;;2.10;;
20036;SDS011;10179;42.640;23.312;2023-08-06T09:39:38;3.50;;;2.00;;
20036;SDS011;10179;42.640;23.312;2023-08-06T09:42:05;2.40;;;2.05;;
20036;SDS011;10179;42.640;23.312;2023-08-06T09:44:31;2.15;;;1.85;;
20036;SDS011;10179;42.640;23.312;2023-08-06T09:46:58;5.47;;;2.08;;
20036;SDS011;10179;42.640;23.312;2023-08-06T09:49:27;4.90;;;1.90;;
20036;SDS011;10179;42.640;23.312;2023-08-06T09:52:06;3.55;;;2.53;;
20036;SDS011;10179;42.640;23.312;2023-08-06T09:54:35;4.28;;;2.47;;
20036;SDS011;10179;42.640;23.312;2023-08-06T09:57:02;3.33;;;2.30;;
20036;SDS011;10179;42.640;23.312;2023-08-06T09:59:28;5.68;;;2.22;;
20036;SDS011;10179;42.640;23.312;2023-08-06T10:01:53;4.97;;;2.60;;
20036;SDS011;10179;42.640;23.312;2023-08-06T10:04:20;4.00;;;2.30;;
20036;SDS011;10179;42.640;23.312;2023-08-06T10:06:46;5.78;;;2.20;;
20036;SDS011;10179;42.640;23.312;2023-08-06T10:09:15;4.32;;;1.85;;
20036;SDS011;10179;42.640;23.312;2023-08-06T10:11:42;2.92;;;1.95;;
20036;SDS011;10179;42.640;23.312;2023-08-06T10:14:12;3.72;;;2.13;;
20036;SDS011;10179;42.640;23.312;2023-08-06T10:16:41;3.53;;;2.20;;
20036;SDS011;10179;42.640;23.312;2023-08-06T10:19:09;7.95;;;2.70;;
20036;SDS011;10179;42.640;23.312;2023-08-06T10:21:38;3.60;;;2.22;;
20036;SDS011;10179;42.640;23.312;2023-08-06T10:24:03;2.92;;;2.00;;
20036;SDS011;10179;42.640;23.312;2023-08-06T10:26:34;6.10;;;1.88;;
20036;SDS011;10179;42.640;23.312;2023-08-06T10:28:59;2.75;;;2.08;;
20036;SDS011;10179;42.640;23.312;2023-08-06T10:34:19;1.98;;;1.60;;
20036;SDS011;10179;42.640;23.312;2023-08-06T10:36:44;3.17;;;1.65;;
20036;SDS011;10179;42.640;23.312;2023-08-06T10:39:13;3.88;;;2.05;;
20036;SDS011;10179;42.640;23.312;2023-08-06T10:41:39;4.65;;;2.05;;
20036;SDS011;10179;42.640;23.312;2023-08-06T10:44:08;6.05;;;2.33;;
20036;SDS011;10179;42.640;23.312;2023-08-06T10:46:34;4.53;;;2.15;;
20036;SDS011;10179;42.640;23.312;2023-08-06T10:49:01;2.70;;;2.20;;
20036;SDS011;10179;42.640;23.312;2023-08-06T10:51:27;4.65;;;2.70;;
20036;SDS011;10179;42.640;23.312;2023-08-06T10:53:53;2.90;;;2.40;;
20036;SDS011;10179;42.640;23.312;2023-08-06T10:56:19;5.47;;;2.28;;
20036;SDS011;10179;42.640;23.312;2023-08-06T10:58:47;6.65;;;2.30;;
20036;SDS011;10179;42.640;23.312;2023-08-06T11:01:14;5.22;;;2.70;;
20036;SDS011;10179;42.640;23.312;2023-08-06T11:03:40;4.35;;;2.80;;
20036;SDS011;10179;42.640;23.312;2023-08-06T11:06:10;5.50;;;3.97;;
20036;SDS011;10179;42.640;23.312;2023-08-06T11:08:46;4.20;;;3.03;;
20036;SDS011;10179;42.640;23.312;2023-08-06T11:11:14;3.67;;;2.67;;
20036;SDS011;10179;42.640;23.312;2023-08-06T11:13:43;3.20;;;2.53;;
20036;SDS011;10179;42.640;23.312;2023-08-06T11:16:20;7.25;;;2.60;;
20036;SDS011;10179;42.640;23.312;2023-08-06T11:18:49;5.90;;;3.10;;
20036;SDS011;10179;42.640;23.312;2023-08-06T11:21:18;4.30;;;2.40;;
20036;SDS011;10179;42.640;23.312;2023-08-06T11:23:44;3.50;;;2.10;;
20036;SDS011;10179;42.640;23.312;2023-08-06T11:26:10;4.00;;;1.95;;
20036;SDS011;10179;42.640;23.312;2023-08-06T11:28:35;2.78;;;1.73;;
20036;SDS011;10179;42.640;23.312;2023-08-06T11:31:00;4.15;;;2.00;;
20036;SDS011;10179;42.640;23.312;2023-08-06T11:33:27;4.28;;;2.22;;
20036;SDS011;10179;42.640;23.312;2023-08-06T11:35:57;5.63;;;2.17;;
20036;SDS011;10179;42.640;23.312;2023-08-06T11:38:24;8.35;;;2.55;;
20036;SDS011;10179;42.640;23.312;2023-08-06T11:40:51;3.92;;;2.63;;
20036;SDS011;10179;42.640;23.312;2023-08-06T11:43:18;6.22;;;3.03;;
20036;SDS011;10179;42.640;23.312;2023-08-06T11:45:45;5.40;;;2.60;;
20036;SDS011;10179;42.640;23.312;2023-08-06T11:48:11;4.57;;;2.75;;
20036;SDS011;10179;42.640;23.312;2023-08-06T11:50:37;5.60;;;3.08;;
20036;SDS011;10179;42.640;23.312;2023-08-06T11:53:06;6.28;;;2.60;;
20036;SDS011;10179;42.640;23.312;2023-08-06T11:55:32;4.95;;;2.75;;
20036;SDS011;10179;42.640;23.312;2023-08-06T11:57:58;8.05;;;4.00;;
20036;SDS011;10179;42.640;23.312;2023-08-06T12:00:24;7.13;;;2.90;;
20036;SDS011;10179;42.640;23.312;2023-08-06T12:02:50;5.68;;;3.25;;
20036;SDS011;10179;42.640;23.312;2023-08-06T12:05:20;7.65;;;3.00;;
20036;SDS011;10179;42.640;23.312;2023-08-06T12:07:50;3.65;;;2.70;;
20036;SDS011;10179;42.640;23.312;2023-08-06T12:10:17;5.47;;;3.67;;
20036;SDS011;10179;42.640;23.312;2023-08-06T12:12:44;5.00;;;3.17;;
20036;SDS011;10179;42.640;23.312;2023-08-06T12:15:10;3.17;;;2.03;;
20036;SDS011;10179;42.640;23.312;2023-08-06T12:17:36;7.18;;;4.25;;
20036;SDS011;10179;42.640;23.312;2023-08-06T12:20:03;12.27;;;4.88;;
20036;SDS011;10179;42.640;23.312;2023-08-06T12:22:32;5.03;;;4.00;;
20036;SDS011;10179;42.640;23.312;2023-08-06T12:25:03;4.85;;;3.47;;
20036;SDS011;10179;42.640;23.312;2023-08-06T12:27:39;5.35;;;3.40;;
20036;SDS011;10179;42.640;23.312;2023-08-06T12:30:06;5.45;;;3.88;;
20036;SDS011;10179;42.640;23.312;2023-08-06T12:32:33;9.45;;;4.28;;
20036;SDS011;10179;42.640;23.312;2023-08-06T12:34:59;7.75;;;3.80;;
20036;SDS011;10179;42.640;23.312;2023-08-06T12:37:25;5.80;;;4.10;;
20036;SDS011;10179;42.640;23.312;2023-08-06T12:39:51;6.00;;;4.47;;
20036;SDS011;10179;42.640;23.312;2023-08-06T12:42:16;5.28;;;3.47;;
20036;SDS011;10179;42.640;23.312;2023-08-06T12:44:42;6.47;;;3.88;;
20036;SDS011;10179;42.640;23.312;2023-08-06T12:47:08;7.30;;;4.35;;
20036;SDS011;10179;42.640;23.312;2023-08-06T12:49:33;8.80;;;4.72;;
20036;SDS011;10179;42.640;23.312;2023-08-06T12:51:59;7.70;;;4.15;;
20036;SDS011;10179;42.640;23.312;2023-08-06T12:54:25;5.57;;;3.85;;
20036;SDS011;10179;42.640;23.312;2023-08-06T12:56:51;4.60;;;3.17;;
20036;SDS011;10179;42.640;23.312;2023-08-06T12:59:17;8.40;;;4.20;;
20036;SDS011;10179;42.640;23.312;2023-08-06T13:01:43;6.15;;;3.47;;
20036;SDS011;10179;42.640;23.312;2023-08-06T13:04:09;4.35;;;3.25;;
20036;SDS011;10179;42.640;23.312;2023-08-06T13:06:35;4.85;;;3.40;;
20036;SDS011;10179;42.640;23.312;2023-08-06T13:09:05;5.50;;;3.50;;
20036;SDS011;10179;42.640;23.312;2023-08-06T13:11:32;12.38;;;5.65;;
20036;SDS011;10179;42.640;23.312;2023-08-06T13:14:05;6.47;;;4.32;;
20036;SDS011;10179;42.640;23.312;2023-08-06T13:16:31;7.10;;;4.03;;
20036;SDS011;10179;42.640;23.312;2023-08-06T13:18:57;6.50;;;4.22;;
20036;SDS011;10179;42.640;23.312;2023-08-06T13:21:23;7.22;;;3.13;;
20036;SDS011;10179;42.640;23.312;2023-08-06T13:23:48;6.75;;;4.43;;
20036;SDS011;10179;42.640;23.312;2023-08-06T13:26:14;5.78;;;3.53;;
20036;SDS011;10179;42.640;23.312;2023-08-06T13:28:40;7.65;;;4.00;;
20036;SDS011;10179;42.640;23.312;2023-08-06T13:31:06;4.05;;;3.47;;
20036;SDS011;10179;42.640;23.312;2023-08-06T13:33:32;5.93;;;3.97;;
20036;SDS011;10179;42.640;23.312;2023-08-06T13:35:57;5.50;;;3.45;;
20036;SDS011;10179;42.640;23.312;2023-08-06T13:38:23;4.97;;;3.90;;
20036;SDS011;10179;42.640;23.312;2023-08-06T13:40:48;5.25;;;3.60;;
20036;SDS011;10179;42.640;23.312;2023-08-06T13:43:13;8.48;;;3.60;;
20036;SDS011;10179;42.640;23.312;2023-08-06T13:45:42;4.22;;;3.20;;
20036;SDS011;10179;42.640;23.312;2023-08-06T13:48:07;7.72;;;3.78;;
20036;SDS011;10179;42.640;23.312;2023-08-06T13:50:33;4.22;;;3.42;;
20036;SDS011;10179;42.640;23.312;2023-08-06T13:52:58;7.63;;;3.70;;
20036;SDS011;10179;42.640;23.312;2023-08-06T13:55:24;5.82;;;2.92;;
20036;SDS011;10179;42.640;23.312;2023-08-06T13:57:49;5.82;;;3.53;;
20036;SDS011;10179;42.640;23.312;2023-08-06T14:00:15;6.65;;;3.60;;
20036;SDS011;10179;42.640;23.312;2023-08-06T14:02:40;4.07;;;3.10;;
20036;SDS011;10179;42.640;23.312;2023-08-06T14:05:06;3.90;;;3.35;;
20036;SDS011;10179;42.640;23.312;2023-08-06T14:07:32;6.57;;;3.25;;
20036;SDS011;10179;42.640;23.312;2023-08-06T14:09:58;5.85;;;2.95;;
20036;SDS011;10179;42.640;23.312;2023-08-06T14:12:23;6.72;;;3.28;;
20036;SDS011;10179;42.640;23.312;2023-08-06T14:14:49;7.47;;;3.30;;
20036;SDS011;10179;42.640;23.312;2023-08-06T14:17:14;5.97;;;3.45;;
20036;SDS011;10179;42.640;23.312;2023-08-06T14:19:40;6.30;;;2.75;;
20036;SDS011;10179;42.640;23.312;2023-08-06T14:22:06;3.95;;;2.95;;
20036;SDS011;10179;42.640;23.312;2023-08-06T14:24:31;7.20;;;3.67;;
20036;SDS011;10179;42.640;23.312;2023-08-06T14:26:56;6.43;;;3.05;;
20036;SDS011;10179;42.640;23.312;2023-08-06T14:29:22;3.20;;;2.65;;
20036;SDS011;10179;42.640;23.312;2023-08-06T14:31:47;3.28;;;2.55;;
20036;SDS011;10179;42.640;23.312;2023-08-06T14:34:13;4.70;;;2.88;;
20036;SDS011;10179;42.640;23.312;2023-08-06T14:36:38;4.45;;;3.25;;